createdAt,value
2022-08-18T00:00:36.831Z,18.3
2022-08-18T00:02:49.732Z,18.4
2022-08-18T00:04:49.575Z,18.3
2022-08-18T00:06:51.482Z,18.3
2022-08-18T00:08:55.419Z,18.3
2022-08-18T00:10:59.373Z,18.3
2022-08-18T00:13:03.285Z,18.3
2022-08-18T00:15:07.211Z,18.3
2022-08-18T00:17:11.161Z,18.4
2022-08-18T00:19:17.917Z,18.3
2022-08-18T00:21:21.862Z,18.2
2022-08-18T00:25:29.733Z,18.2
2022-08-18T00:27:33.663Z,18.2
2022-08-18T00:29:37.610Z,18.2
2022-08-18T00:31:41.541Z,18.2
2022-08-18T00:33:48.290Z,18.2
2022-08-18T00:35:52.217Z,18.2
2022-08-18T00:37:56.180Z,18.2
2022-08-18T00:38:59.552Z,18.2
2022-08-18T00:43:07.394Z,18.1
2022-08-18T00:49:22.055Z,18.1
2022-08-18T00:53:29.966Z,18.1
2022-08-18T00:55:33.903Z,18.1
2022-08-18T00:57:37.834Z,18.1
2022-08-18T00:59:41.780Z,18
2022-08-18T01:10:04.289Z,18.2
2022-08-18T01:18:22.881Z,18.2
2022-08-18T01:20:26.952Z,18.2
2022-08-18T01:24:34.679Z,18.1
2022-08-18T01:26:44.357Z,18.1
2022-08-18T01:28:44.063Z,18.1
2022-08-18T01:30:50.779Z,18.1
2022-08-18T01:32:54.742Z,18.1
2022-08-18T01:36:02.042Z,18.2
2022-08-18T01:38:05.983Z,18.1
2022-08-18T01:41:23.963Z,18.1
2022-08-18T01:42:13.901Z,18
2022-08-18T01:44:20.596Z,18.1
2022-08-18T01:46:24.538Z,18.1
2022-08-18T01:48:28.491Z,18.1
2022-08-18T01:50:32.391Z,18.1
2022-08-18T01:52:36.908Z,18.2
2022-08-18T01:54:40.844Z,18.1
2022-08-18T01:56:44.766Z,18.1
2022-08-18T01:58:51.532Z,18.1
2022-08-18T02:00:55.451Z,18.1
2022-08-18T02:03:02.533Z,18.1
2022-08-18T02:05:03.331Z,18.1
2022-08-18T02:09:11.180Z,18.1
2022-08-18T02:11:15.125Z,18.1
2022-08-18T02:13:21.865Z,18
2022-08-18T02:15:25.812Z,18.1
2022-08-18T02:17:29.740Z,18.1
2022-08-18T02:19:33.703Z,18.1
2022-08-18T02:21:37.631Z,18.1
2022-08-18T02:23:41.584Z,18.1
2022-08-18T02:25:45.477Z,18.1
2022-08-18T02:27:52.413Z,18.2
2022-08-18T02:29:56.191Z,18.2
2022-08-18T02:32:00.194Z,18.2
2022-08-18T02:33:03.496Z,18.2
2022-08-18T02:35:08.380Z,18.2
2022-08-18T02:39:15.291Z,18.2
2022-08-18T02:45:29.950Z,18.2
2022-08-18T02:53:45.692Z,18.2
2022-08-18T02:55:52.444Z,18.2
2022-08-18T02:57:56.391Z,18.2
2022-08-18T03:00:00.304Z,18.2
2022-08-18T03:04:08.184Z,18.2
2022-08-18T03:06:12.112Z,18.3
2022-08-18T03:08:16.046Z,18.3
2022-08-18T03:10:32.467Z,18.3
2022-08-18T03:14:30.660Z,18.3
2022-08-18T03:22:46.377Z,18.3
2022-08-18T03:26:57.080Z,18.3
2022-08-18T03:29:01.037Z,18.3
2022-08-18T03:31:24.864Z,18.3
2022-08-18T03:33:28.799Z,18.3
2022-08-18T03:41:58.085Z,18.3
2022-08-18T03:43:51.865Z,18.3
2022-08-18T03:47:59.189Z,18.3
2022-08-18T03:52:09.879Z,18.4
2022-08-18T03:56:17.861Z,18.3
2022-08-18T04:00:25.631Z,18.3
2022-08-18T04:12:52.076Z,18.4
2022-08-18T04:14:56.002Z,18.4
2022-08-18T04:16:59.951Z,18.4
2022-08-18T04:19:03.870Z,18.4
2022-08-18T04:21:10.627Z,18.4
2022-08-18T04:23:14.581Z,18.4
2022-08-18T04:25:18.543Z,18.4
2022-08-18T04:26:21.911Z,18.4
2022-08-18T04:30:29.781Z,18.4
2022-08-18T04:42:56.234Z,18.3
2022-08-18T04:45:00.201Z,18.3
2022-08-18T04:47:04.131Z,18.3
2022-08-18T04:49:10.872Z,18.3
2022-08-18T04:52:27.017Z,18.3
2022-08-18T04:53:18.781Z,18.3
2022-08-18T04:55:22.674Z,18.3
2022-08-18T04:57:26.595Z,18.3
2022-08-18T04:59:30.530Z,18.3
2022-08-18T05:01:34.587Z,18.3
2022-08-18T05:03:44.356Z,18.3
2022-08-18T05:05:45.188Z,18.3
2022-08-18T05:07:49.162Z,18.3
2022-08-18T05:09:53.032Z,18.4
2022-08-18T05:11:56.978Z,18.3
2022-08-18T05:14:00.899Z,18.4
2022-08-18T05:16:11.597Z,18.4
2022-08-18T05:18:13.245Z,18.4
2022-08-18T05:20:15.534Z,18.5
2022-08-18T05:22:19.544Z,18.5
2022-08-18T05:23:23.294Z,18.6
2022-08-18T05:37:53.482Z,18.6
2022-08-18T05:46:11.843Z,18.7
2022-08-18T05:48:15.720Z,18.7
2022-08-18T05:50:19.698Z,18.7
2022-08-18T05:52:23.596Z,18.8
2022-08-18T05:54:27.530Z,18.8
2022-08-18T05:56:31.481Z,18.7
2022-08-18T05:58:35.416Z,18.7
2022-08-18T06:00:42.166Z,18.7
2022-08-18T06:02:46.175Z,18.8
2022-08-18T06:11:01.841Z,19
2022-08-18T06:20:23.787Z,19.3
2022-08-18T06:22:29.820Z,19.4
2022-08-18T06:24:31.660Z,19.5
2022-08-18T06:26:35.590Z,19.7
2022-08-18T06:28:42.354Z,20
2022-08-18T06:30:46.285Z,20
2022-08-18T06:32:50.223Z,20.1
2022-08-18T06:34:54.624Z,20.4
2022-08-18T06:36:58.076Z,20.7
2022-08-18T06:39:02.038Z,20.9
2022-08-18T06:41:05.956Z,21
2022-08-18T06:43:12.717Z,20.8
2022-08-18T06:45:16.637Z,20.6
2022-08-18T06:49:24.517Z,20.5
2022-08-18T06:51:28.420Z,20.6
2022-08-18T06:53:32.361Z,20.5
2022-08-18T06:55:36.273Z,20.8
2022-08-18T06:57:43.029Z,21
2022-08-18T06:59:46.969Z,20.9
2022-08-18T07:03:54.804Z,21.5
2022-08-18T07:08:02.707Z,21
2022-08-18T07:10:06.595Z,20.9
2022-08-18T07:12:13.345Z,21
2022-08-18T07:14:17.347Z,20.9
2022-08-18T07:16:34.515Z,21
2022-08-18T07:18:39.552Z,21.2
2022-08-18T07:20:43.440Z,21.2
2022-08-18T07:22:47.356Z,21.5
2022-08-18T07:24:55.596Z,21.1
2022-08-18T07:26:59.530Z,21
2022-08-18T07:29:03.417Z,21.7
2022-08-18T07:33:11.244Z,21.2
2022-08-18T07:39:25.799Z,24.2
2022-08-18T07:41:29.669Z,23.7
2022-08-18T07:43:33.555Z,23.1
2022-08-18T07:45:37.459Z,23.5
2022-08-18T07:47:41.349Z,23.7
2022-08-18T07:50:13.490Z,23.5
2022-08-18T07:51:53.066Z,23.5
2022-08-18T07:55:59.693Z,23.1
2022-08-18T07:58:03.558Z,22.8
2022-08-18T08:00:10.449Z,23.3
2022-08-18T08:04:25.665Z,23.1
2022-08-18T08:08:25.872Z,24.6
2022-08-18T08:10:29.646Z,24.6
2022-08-18T08:13:53.354Z,25.8
2022-08-18T08:15:40.687Z,25.5
2022-08-18T08:17:44.511Z,24.8
2022-08-18T08:20:00.607Z,24.6
2022-08-18T08:21:55.041Z,25.8
2022-08-18T08:23:59.013Z,25.8
2022-08-18T08:26:02.638Z,25.7
2022-08-18T08:28:06.440Z,26.3
2022-08-18T08:32:14.000Z,24.6
2022-08-18T08:34:17.773Z,25.3
2022-08-18T08:36:24.417Z,26
2022-08-18T08:38:40.257Z,25.7
2022-08-18T08:40:31.904Z,24
2022-08-18T08:42:40.267Z,23.3
2022-08-18T08:44:58.211Z,23.3
2022-08-18T08:46:43.172Z,23.1
2022-08-18T08:48:46.950Z,23.4
2022-08-18T08:50:53.582Z,23.2
2022-08-18T08:52:57.629Z,23.3
2022-08-18T08:55:01.136Z,23.4
2022-08-18T08:57:04.948Z,24.6
2022-08-18T08:59:08.732Z,25.4
2022-08-18T09:01:12.518Z,25.4
2022-08-18T09:03:16.300Z,26.1
2022-08-18T09:05:22.948Z,25.9
2022-08-18T09:09:30.511Z,26.3
2022-08-18T09:10:33.846Z,25.6
2022-08-18T09:12:37.596Z,25.8
2022-08-18T09:14:41.350Z,25.9
2022-08-18T09:16:45.098Z,25.3
2022-08-18T09:18:51.725Z,25.9
2022-08-18T09:20:55.492Z,26
2022-08-18T09:22:59.229Z,25.4
2022-08-18T09:25:03.019Z,25.8
2022-08-18T09:27:06.782Z,26.4
2022-08-18T09:29:10.517Z,26.9
2022-08-18T09:31:14.262Z,26.3
2022-08-18T09:35:24.648Z,25.6
2022-08-18T09:37:28.386Z,25.9
2022-08-18T09:39:32.165Z,25.7
2022-08-18T09:41:35.890Z,25.8
2022-08-18T09:43:39.631Z,25.9
2022-08-18T09:45:43.372Z,26
2022-08-18T09:47:50.005Z,26.9
2022-08-18T09:49:53.756Z,27
2022-08-18T09:51:57.604Z,26.6
2022-08-18T09:54:01.301Z,27.1
2022-08-18T09:56:05.597Z,27.9
2022-08-18T09:58:08.775Z,28.5
2022-08-18T10:00:12.574Z,28.3
2022-08-18T10:02:24.094Z,27.7
2022-08-18T10:06:27.508Z,27.5
2022-08-18T10:07:32.027Z,28.3
2022-08-18T10:09:36.517Z,28.8
2022-08-18T10:11:37.324Z,28.9
2022-08-18T10:15:47.614Z,27.7
2022-08-18T10:17:51.306Z,27.7
2022-08-18T10:19:55.009Z,28.3
2022-08-18T10:21:58.714Z,27.5
2022-08-18T10:24:29.900Z,26.6
2022-08-18T10:26:11.467Z,27.7
2022-08-18T10:28:09.777Z,28.2
2022-08-18T10:30:16.365Z,26.8
2022-08-18T10:34:24.656Z,26.1
2022-08-18T10:40:34.820Z,27.3
2022-08-18T10:42:38.524Z,26.7
2022-08-18T10:44:45.099Z,26.3
2022-08-18T10:46:48.814Z,26
2022-08-18T10:48:52.576Z,26
2022-08-18T10:50:56.281Z,25.9
2022-08-18T10:53:16.985Z,25.7
2022-08-18T10:55:03.759Z,25.4
2022-08-18T10:57:07.473Z,25.4
2022-08-18T11:03:49.925Z,25.6
2022-08-18T11:05:49.239Z,25.3
2022-08-18T11:10:12.982Z,25.4
2022-08-18T11:12:03.406Z,25.7
2022-08-18T11:14:07.186Z,25.6
2022-08-18T11:16:13.325Z,25.6
2022-08-18T11:18:14.738Z,25.6
2022-08-18T11:20:18.540Z,25.6
2022-08-18T11:22:31.278Z,25.6
2022-08-18T11:24:26.086Z,25.4
2022-08-18T11:26:32.763Z,24.8
2022-08-18T11:28:40.731Z,24.8
2022-08-18T11:30:40.347Z,25
2022-08-18T11:32:51.748Z,24.9
2022-08-18T11:34:52.859Z,25
2022-08-18T11:36:51.767Z,24.8
2022-08-18T11:38:55.627Z,24.6
2022-08-18T11:41:09.745Z,24.3
2022-08-18T11:43:06.083Z,24.4
2022-08-18T11:47:13.705Z,24.3
2022-08-18T11:55:31.887Z,24
2022-08-18T11:57:35.742Z,23.9
2022-08-18T12:00:44.137Z,23.9
2022-08-18T12:02:46.803Z,24.1
2022-08-18T12:04:50.864Z,24.4
2022-08-18T12:06:54.440Z,24.7
2022-08-18T12:09:01.145Z,24.4
2022-08-18T12:11:26.507Z,24.4
2022-08-18T12:13:08.828Z,24.5
2022-08-18T12:15:17.550Z,24.6
2022-08-18T12:17:16.513Z,24.9
2022-08-18T12:19:20.424Z,24.8
2022-08-18T12:21:24.189Z,24.7
2022-08-18T12:25:34.804Z,25
2022-08-18T12:27:38.594Z,25.1
2022-08-18T12:29:42.884Z,25
2022-08-18T12:31:48.056Z,25.1
2022-08-18T12:34:00.886Z,25
2022-08-18T12:35:53.978Z,24.6
2022-08-18T12:38:05.115Z,24.4
2022-08-18T12:40:06.155Z,24.2
2022-08-18T12:42:08.379Z,24.1
2022-08-18T12:44:13.346Z,24
2022-08-18T12:46:16.056Z,23.7
2022-08-18T12:48:22.397Z,23.9
2022-08-18T12:54:34.445Z,23.5
2022-08-18T12:57:53.313Z,23.5
2022-08-18T12:59:45.358Z,23.4
2022-08-18T13:01:49.300Z,23.6
2022-08-18T13:04:10.648Z,23.9
2022-08-18T13:08:04.202Z,23.8
2022-08-18T13:10:07.539Z,23.7
2022-08-18T13:12:14.717Z,23.6
2022-08-18T13:14:15.204Z,23.6
2022-08-18T13:18:27.211Z,24.2
2022-08-18T13:20:31.117Z,24.3
2022-08-18T13:22:34.930Z,24.3
2022-08-18T13:26:42.618Z,23.8
2022-08-18T13:28:56.547Z,24
2022-08-18T13:30:50.340Z,24.2
2022-08-18T13:37:04.733Z,23.8
2022-08-18T13:39:08.840Z,24.3
2022-08-18T13:43:17.413Z,24.8
2022-08-18T13:45:25.072Z,24.9
2022-08-18T13:47:24.007Z,25
2022-08-18T13:49:30.753Z,25
2022-08-18T13:51:34.545Z,24.9
2022-08-18T13:53:50.631Z,24.5
2022-08-18T13:56:52.073Z,24
2022-08-18T13:58:53.308Z,24.2
2022-08-18T14:00:54.049Z,24.4
2022-08-18T14:02:59.957Z,24.2
2022-08-18T14:05:03.800Z,24.2
2022-08-18T14:07:10.967Z,24.4
2022-08-18T14:09:19.922Z,24.4
2022-08-18T14:11:15.334Z,24.2
2022-08-18T14:13:20.479Z,24.5
2022-08-18T14:15:23.029Z,24.5
2022-08-18T14:17:29.706Z,24.1
2022-08-18T14:19:33.598Z,24
2022-08-18T14:21:37.404Z,24
2022-08-18T14:25:45.085Z,24.5
2022-08-18T14:27:56.122Z,24.6
2022-08-18T14:29:52.814Z,24.8
2022-08-18T14:31:59.477Z,25.3
2022-08-18T14:34:04.394Z,25.3
2022-08-18T14:36:09.744Z,25.1
2022-08-18T14:38:10.984Z,25
2022-08-18T14:40:15.453Z,24.5
2022-08-18T14:42:18.668Z,24.6
2022-08-18T14:44:23.890Z,24.8
2022-08-18T14:46:30.676Z,25.1
2022-08-18T14:48:33.027Z,24.8
2022-08-18T14:50:37.002Z,24.6
2022-08-18T14:53:06.482Z,24.9
2022-08-18T14:55:10.319Z,25
2022-08-18T14:57:14.187Z,25.5
2022-08-18T14:59:20.831Z,25.7
2022-08-18T15:01:24.804Z,25.6
2022-08-18T15:05:33.761Z,25.1
2022-08-18T15:07:36.220Z,25
2022-08-18T15:09:40.076Z,25
2022-08-18T15:11:43.920Z,25.5
2022-08-18T15:13:50.632Z,25.6
2022-08-18T15:15:54.467Z,25.5
2022-08-18T15:17:58.289Z,25.4
2022-08-18T15:20:02.272Z,25.3
2022-08-18T15:22:06.181Z,25.1
2022-08-18T15:24:15.016Z,24.9
2022-08-18T15:26:13.712Z,25.3
2022-08-18T15:28:20.424Z,26.2
2022-08-18T15:30:24.293Z,26.4
2022-08-18T15:34:31.967Z,26.4
2022-08-18T15:36:35.798Z,26.5
2022-08-18T15:38:39.625Z,26.3
2022-08-18T15:40:43.592Z,25.8
2022-08-18T15:42:50.224Z,26
2022-08-18T15:44:54.021Z,26.1
2022-08-18T15:46:57.847Z,25.7
2022-08-18T15:48:01.197Z,25.1
2022-08-18T15:50:06.668Z,25.2
2022-08-18T15:58:26.868Z,25.1
2022-08-18T16:02:30.961Z,25.4
2022-08-18T16:04:34.779Z,25.5
2022-08-18T16:06:38.633Z,25.6
2022-08-18T16:08:42.483Z,25.7
2022-08-18T16:10:49.195Z,25.6
2022-08-18T16:12:53.010Z,25.6
2022-08-18T16:14:56.872Z,25.5
2022-08-18T16:17:06.026Z,25.8
2022-08-18T16:19:04.558Z,25.9
2022-08-18T16:23:12.218Z,25.2
2022-08-18T16:25:18.933Z,25.4
2022-08-18T16:27:22.755Z,25.5
2022-08-18T16:29:26.611Z,25.6
2022-08-18T16:31:30.452Z,25.6
2022-08-18T16:33:34.283Z,25.6
2022-08-18T16:35:38.140Z,25.6
2022-08-18T16:37:41.998Z,25.6
2022-08-18T16:39:48.771Z,25.2
2022-08-18T16:41:52.506Z,25.2
2022-08-18T16:43:56.419Z,25
2022-08-18T16:44:59.697Z,24.9
2022-08-18T16:47:03.558Z,24.9
2022-08-18T16:49:07.415Z,25.1
2022-08-18T16:51:11.235Z,25.1
2022-08-18T16:53:17.934Z,25.2
2022-08-18T16:55:21.809Z,25.3
2022-08-18T16:57:53.274Z,25.4
2022-08-18T17:01:33.845Z,25
2022-08-18T17:03:37.176Z,25.1
2022-08-18T17:05:41.037Z,25.3
2022-08-18T17:07:47.740Z,25.3
2022-08-18T17:09:51.606Z,25.4
2022-08-18T17:11:55.432Z,25.3
2022-08-18T17:13:59.283Z,25.2
2022-08-18T17:16:03.112Z,25.3
2022-08-18T17:18:06.970Z,25.3
2022-08-18T17:20:11.139Z,25.5
2022-08-18T17:22:17.515Z,26.3
2022-08-18T17:28:29.020Z,25.9
2022-08-18T17:30:32.876Z,26.1
2022-08-18T17:34:40.565Z,26.4
2022-08-18T17:36:52.699Z,25
2022-08-18T17:38:51.087Z,24.7
2022-08-18T17:40:54.919Z,24.6
2022-08-18T17:41:58.286Z,24.5
2022-08-18T17:44:04.279Z,24.4
2022-08-18T17:46:05.954Z,24.2
2022-08-18T17:48:09.799Z,24.1
2022-08-18T17:50:27.058Z,24.2
2022-08-18T18:00:35.750Z,24
2022-08-18T18:02:39.590Z,24
2022-08-18T18:04:46.289Z,23.9
2022-08-18T18:06:51.288Z,23.9
2022-08-18T18:13:01.727Z,23.9
2022-08-18T18:15:05.606Z,23.9
2022-08-18T18:17:13.903Z,23.8
2022-08-18T18:19:16.185Z,23.7
2022-08-18T18:21:20.018Z,23.7
2022-08-18T18:23:23.913Z,23.8
2022-08-18T18:25:29.635Z,23.7
2022-08-18T18:27:31.655Z,23.7
2022-08-18T18:29:38.275Z,23.6
2022-08-18T18:31:39.617Z,23.5
2022-08-18T18:33:46.100Z,23.4
2022-08-18T18:35:49.969Z,23.4
2022-08-18T18:37:54.018Z,23.3
2022-08-18T18:42:27.334Z,23.2
2022-08-18T18:46:37.950Z,23
2022-08-18T18:48:52.289Z,23
2022-08-18T18:50:55.479Z,23
2022-08-18T18:52:49.611Z,22.9
2022-08-18T18:54:53.492Z,22.9
2022-08-18T18:56:57.387Z,22.8
2022-08-18T18:59:01.290Z,22.7
2022-08-18T19:01:08.051Z,22.6
2022-08-18T19:03:11.895Z,22.6
2022-08-18T19:05:15.803Z,22.5
2022-08-18T19:07:21.426Z,22.5
2022-08-18T19:09:23.607Z,22.4
2022-08-18T19:11:27.495Z,22.4
2022-08-18T19:15:38.604Z,22.2
2022-08-18T19:17:43.550Z,22.2
2022-08-18T19:19:47.399Z,22.1
2022-08-18T19:22:05.033Z,22.1
2022-08-18T19:23:55.208Z,22
2022-08-18T19:28:03.022Z,21.8
2022-08-18T19:32:16.523Z,21.7
2022-08-18T19:34:17.569Z,21.6
2022-08-18T19:35:20.948Z,21.6
2022-08-18T19:37:31.024Z,21.6
2022-08-18T19:39:28.838Z,21.6
2022-08-18T19:41:36.030Z,21.5
2022-08-18T19:43:39.429Z,21.4
2022-08-18T19:45:45.050Z,21.4
2022-08-18T19:47:47.215Z,21.3
2022-08-18T19:49:51.128Z,21.3
2022-08-18T19:51:55.028Z,21.3
2022-08-18T19:53:58.948Z,21.3
2022-08-18T20:02:17.434Z,21
2022-08-18T20:04:21.321Z,21
2022-08-18T20:10:33.063Z,20.7
2022-08-18T20:12:39.814Z,20.7
2022-08-18T20:14:43.729Z,20.7
2022-08-18T20:16:47.622Z,20.6
2022-08-18T20:18:51.554Z,20.6
2022-08-18T20:20:55.486Z,20.5
2022-08-18T20:22:59.515Z,20.5
2022-08-18T20:25:03.312Z,20.4
2022-08-18T20:27:10.077Z,20.4
2022-08-18T20:29:13.971Z,20.4
2022-08-18T20:31:17.908Z,20.4
2022-08-18T20:32:21.284Z,20.3
2022-08-18T20:40:39.893Z,20.3
2022-08-18T20:44:47.665Z,20.1
2022-08-18T20:48:55.528Z,20.1
2022-08-18T20:53:03.356Z,20.1
2022-08-18T20:55:11.577Z,20
2022-08-18T20:57:14.047Z,19.9
2022-08-18T20:59:17.975Z,19.9
2022-08-18T21:03:25.846Z,19.9
2022-08-18T21:05:29.782Z,19.8
2022-08-18T21:09:40.481Z,19.7
2022-08-18T21:11:44.396Z,19.7
2022-08-18T21:15:52.279Z,19.6
2022-08-18T21:17:57.133Z,19.6
2022-08-18T21:20:00.187Z,19.5
2022-08-18T21:22:04.083Z,19.5
2022-08-18T21:24:10.832Z,19.5
2022-08-18T21:26:14.748Z,19.5
2022-08-18T21:28:18.686Z,19.4
2022-08-18T21:29:22.076Z,19.5
2022-08-18T21:31:42.929Z,19.5
2022-08-18T21:33:29.921Z,19.5
2022-08-18T21:35:33.857Z,19.4
2022-08-18T21:37:40.637Z,19.4
2022-08-18T21:39:44.625Z,19.3
2022-08-18T21:41:48.503Z,19.3
2022-08-18T21:43:52.428Z,19.2
2022-08-18T21:45:56.393Z,19.1
2022-08-18T21:52:11.020Z,19
2022-08-18T21:54:14.956Z,19
2022-08-18T21:56:18.878Z,19
2022-08-18T21:58:33.654Z,18.9
2022-08-18T22:00:26.882Z,18.9
2022-08-18T22:02:30.674Z,18.9
2022-08-18T22:04:34.605Z,18.9
2022-08-18T22:06:41.382Z,18.8
2022-08-18T22:08:49.713Z,18.8
2022-08-18T22:10:49.250Z,18.8
2022-08-18T22:12:53.396Z,18.8
2022-08-18T22:14:57.152Z,18.8
2022-08-18T22:17:01.095Z,18.9
2022-08-18T22:23:15.729Z,18.8
2022-08-18T22:27:43.493Z,18.8
2022-08-18T22:29:47.434Z,18.8
2022-08-18T22:31:51.363Z,18.8
2022-08-18T22:33:58.137Z,18.8
2022-08-18T22:36:02.080Z,18.7
2022-08-18T22:38:06.046Z,18.6
2022-08-18T22:40:10.008Z,18.5
2022-08-18T22:42:13.897Z,18.5
2022-08-18T22:44:17.829Z,18.4
2022-08-18T22:46:24.311Z,18.4
2022-08-18T22:50:32.455Z,18.3
2022-08-18T22:52:36.395Z,18.2
2022-08-18T22:54:40.315Z,18.2
2022-08-18T22:56:54.001Z,18.2
2022-08-18T22:58:48.206Z,18.2
2022-08-18T23:00:52.126Z,18.1
2022-08-18T23:02:59.231Z,18.1
2022-08-18T23:07:06.770Z,18.1
2022-08-18T23:09:10.702Z,18
2022-08-18T23:11:14.639Z,18
2022-08-18T23:13:18.589Z,17.9
2022-08-18T23:15:22.516Z,18
2022-08-18T23:21:37.161Z,18
2022-08-18T23:22:40.549Z,18
2022-08-18T23:24:44.493Z,17.9
2022-08-18T23:26:48.415Z,17.9
2022-08-18T23:28:52.594Z,17.8
2022-08-18T23:30:59.119Z,17.9
2022-08-18T23:33:03.060Z,17.9
2022-08-18T23:35:07.005Z,17.8
2022-08-18T23:37:10.951Z,17.8
2022-08-18T23:39:14.874Z,17.7
2022-08-18T23:41:18.816Z,17.7
2022-08-18T23:43:22.759Z,17.7
2022-08-18T23:53:45.317Z,17.5
2022-08-18T23:55:49.264Z,17.5
2022-08-18T23:57:53.232Z,17.5
